createdAt,value
2022-09-22T00:01:18.393Z,7.70
2022-09-22T00:03:48.888Z,7.70
2022-09-22T00:06:28.040Z,7.70
2022-09-22T00:09:00.423Z,7.60
2022-09-22T00:11:29.940Z,7.60
2022-09-22T00:14:02.426Z,7.60
2022-09-22T00:16:37.089Z,7.50
2022-09-22T00:19:08.962Z,7.50
2022-09-22T00:21:36.170Z,7.50
2022-09-22T00:24:04.338Z,7.40
2022-09-22T00:26:31.227Z,7.40
2022-09-22T00:28:57.939Z,7.30
2022-09-22T00:31:25.862Z,7.30
2022-09-22T00:33:53.671Z,7.30
2022-09-22T00:36:23.891Z,7.20
2022-09-22T00:38:51.499Z,7.20
2022-09-22T00:41:24.308Z,7.20
2022-09-22T00:44:26.013Z,7.20
2022-09-22T00:47:13.572Z,7.10
2022-09-22T00:49:51.888Z,7.10
2022-09-22T00:52:25.324Z,7.10
2022-09-22T00:54:56.806Z,7.00
2022-09-22T00:57:28.329Z,7.00
2022-09-22T00:59:55.466Z,7.00
2022-09-22T01:02:22.188Z,6.90
2022-09-22T01:04:51.938Z,6.90
2022-09-22T01:07:21.626Z,6.90
2022-09-22T01:09:48.164Z,6.90
2022-09-22T01:12:14.944Z,6.90
2022-09-22T01:15:05.165Z,6.90
2022-09-22T01:17:45.694Z,6.90
2022-09-22T01:20:41.382Z,6.90
2022-09-22T01:23:41.423Z,6.80
2022-09-22T01:26:13.774Z,6.80
2022-09-22T01:28:55.106Z,6.70
2022-09-22T01:31:43.983Z,6.70
2022-09-22T01:34:33.491Z,6.70
2022-09-22T01:37:20.562Z,6.70
2022-09-22T01:40:01.152Z,6.70
2022-09-22T01:42:35.560Z,6.60
2022-09-22T01:45:10.024Z,6.60
2022-09-22T01:47:53.228Z,6.50
2022-09-22T01:50:46.328Z,6.50
2022-09-22T01:53:15.549Z,6.50
2022-09-22T01:55:48.228Z,6.50
2022-09-22T01:58:20.075Z,6.50
2022-09-22T02:01:00.909Z,6.50
2022-09-22T02:03:44.213Z,6.50
2022-09-22T02:06:15.854Z,6.40
2022-09-22T02:09:01.405Z,6.40
2022-09-22T02:11:27.929Z,6.40
2022-09-22T02:13:54.781Z,6.40
2022-09-22T02:16:23.516Z,6.30
2022-09-22T02:19:13.345Z,6.30
2022-09-22T02:21:43.054Z,6.30
2022-09-22T02:24:29.005Z,6.30
2022-09-22T02:26:57.642Z,6.20
2022-09-22T02:29:27.184Z,6.20
2022-09-22T02:31:55.175Z,6.20
2022-09-22T02:34:22.644Z,6.10
2022-09-22T02:37:06.253Z,6.20
2022-09-22T02:39:39.649Z,6.20
2022-09-22T02:42:40.945Z,6.20
2022-09-22T02:45:18.535Z,6.20
2022-09-22T02:47:59.160Z,6.10
2022-09-22T02:50:27.902Z,6.10
2022-09-22T02:53:10.706Z,6.10
2022-09-22T02:55:37.426Z,6.10
2022-09-22T02:58:03.944Z,6.10
2022-09-22T03:00:31.213Z,6.10
2022-09-22T03:02:57.781Z,6.10
2022-09-22T03:05:24.421Z,6.10
2022-09-22T03:07:50.985Z,6.10
2022-09-22T03:10:17.661Z,6.00
2022-09-22T03:13:09.032Z,6.00
2022-09-22T03:15:30.857Z,6.00
2022-09-22T03:17:57.479Z,5.90
2022-09-22T03:20:24.074Z,5.90
2022-09-22T03:22:50.641Z,5.90
2022-09-22T03:25:17.227Z,5.90
2022-09-22T03:27:43.782Z,5.90
2022-09-22T03:30:11.387Z,5.90
2022-09-22T03:32:37.985Z,5.90
2022-09-22T03:35:05.216Z,5.90
2022-09-22T03:37:33.172Z,5.90
2022-09-22T03:39:59.837Z,5.90
2022-09-22T03:42:26.385Z,5.80
2022-09-22T03:44:52.913Z,5.90
2022-09-22T03:47:19.800Z,5.90
2022-09-22T03:49:46.317Z,5.80
2022-09-22T03:52:12.897Z,5.90
2022-09-22T03:54:39.551Z,5.80
2022-09-22T03:57:06.120Z,5.80
2022-09-22T03:59:32.717Z,5.80
2022-09-22T04:02:00.882Z,5.80
2022-09-22T04:04:27.487Z,5.70
2022-09-22T04:06:54.158Z,5.70
2022-09-22T04:09:20.861Z,5.70
2022-09-22T04:11:47.422Z,5.70
2022-09-22T04:14:14.838Z,9.80
2022-09-22T04:16:42.432Z,5.70
2022-09-22T04:19:09.899Z,5.70
2022-09-22T04:21:36.534Z,5.70
2022-09-22T04:24:03.313Z,5.70
2022-09-22T04:26:29.923Z,5.70
2022-09-22T04:28:56.656Z,5.70
2022-09-22T04:31:23.173Z,5.60
2022-09-22T04:33:49.738Z,5.70
2022-09-22T04:36:16.261Z,5.70
2022-09-22T04:38:42.761Z,5.70
2022-09-22T04:41:09.283Z,5.60
2022-09-22T04:43:35.884Z,5.70
2022-09-22T04:46:02.489Z,5.70
2022-09-22T04:48:29.084Z,5.60
2022-09-22T04:50:55.632Z,5.60
2022-09-22T04:53:22.201Z,5.60
2022-09-22T04:55:50.235Z,5.50
2022-09-22T04:58:17.117Z,5.50
2022-09-22T05:00:43.731Z,5.50
2022-09-22T05:03:12.787Z,5.50
2022-09-22T05:05:39.435Z,5.50
2022-09-22T05:08:06.405Z,5.50
2022-09-22T05:10:35.348Z,5.50
2022-09-22T05:13:01.968Z,5.50
2022-09-22T05:15:32.477Z,5.50
2022-09-22T05:17:59.574Z,5.50
2022-09-22T05:20:26.965Z,5.50
2022-09-22T05:22:54.662Z,5.50
2022-09-22T05:25:21.340Z,5.50
2022-09-22T05:27:55.525Z,5.50
2022-09-22T05:30:24.170Z,5.60
2022-09-22T05:32:51.312Z,5.60
2022-09-22T05:35:20.002Z,5.60
2022-09-22T05:37:48.414Z,5.60
2022-09-22T05:40:15.713Z,5.60
2022-09-22T05:42:47.008Z,5.60
2022-09-22T05:45:14.645Z,5.60
2022-09-22T05:47:41.524Z,5.60
2022-09-22T05:50:09.904Z,5.60
2022-09-22T05:52:36.588Z,5.60
2022-09-22T05:55:03.885Z,5.70
2022-09-22T05:57:31.753Z,5.70
2022-09-22T05:59:58.860Z,5.70
2022-09-22T06:02:26.781Z,5.70
2022-09-22T06:04:54.249Z,5.70
2022-09-22T06:07:22.434Z,5.80
2022-09-22T06:09:49.109Z,5.80
2022-09-22T06:12:16.790Z,5.90
2022-09-22T06:14:43.557Z,5.90
2022-09-22T06:17:10.601Z,5.90
2022-09-22T06:19:38.066Z,5.90
2022-09-22T06:22:04.829Z,6.00
2022-09-22T06:24:31.432Z,6.00
2022-09-22T06:26:58.001Z,6.10
2022-09-22T06:29:24.545Z,6.10
2022-09-22T06:31:51.125Z,6.20
2022-09-22T06:34:18.730Z,6.20
2022-09-22T06:36:45.259Z,6.30
2022-09-22T06:39:12.983Z,6.40
2022-09-22T06:41:39.494Z,6.50
2022-09-22T06:44:07.866Z,6.70
2022-09-22T06:46:34.997Z,7.00
2022-09-22T06:49:02.489Z,7.60
2022-09-22T06:51:32.770Z,8.30
2022-09-22T06:54:03.993Z,9.10
2022-09-22T06:56:39.707Z,9.90
2022-09-22T06:59:11.028Z,10.60
2022-09-22T07:01:38.169Z,11.30
2022-09-22T07:04:04.835Z,12.00
2022-09-22T07:06:31.501Z,12.60
2022-09-22T07:08:58.149Z,13.20
2022-09-22T07:11:24.793Z,13.70
2022-09-22T07:13:53.389Z,14.30
2022-09-22T07:16:22.800Z,14.50
2022-09-22T07:18:52.296Z,14.60
2022-09-22T07:21:24.653Z,14.40
2022-09-22T07:23:54.065Z,14.10
2022-09-22T07:26:26.436Z,13.80
2022-09-22T07:28:54.035Z,13.50
2022-09-22T07:31:25.079Z,13.20
2022-09-22T07:33:55.790Z,12.90
2022-09-22T07:36:25.962Z,12.70
2022-09-22T07:38:54.377Z,12.50
2022-09-22T07:41:23.736Z,12.40
2022-09-22T07:43:52.536Z,12.30
2022-09-22T07:46:19.867Z,10.80
2022-09-22T07:48:47.201Z,12.10
2022-09-22T07:51:22.488Z,12.10
2022-09-22T07:54:07.066Z,12.00
2022-09-22T07:56:35.198Z,11.90
2022-09-22T07:59:07.436Z,11.90
2022-09-22T08:01:34.672Z,11.90
2022-09-22T08:04:02.131Z,12.00
2022-09-22T08:06:29.120Z,12.00
2022-09-22T08:08:57.515Z,12.00
2022-09-22T08:11:26.851Z,12.00
2022-09-22T08:13:59.771Z,12.00
2022-09-22T08:16:29.537Z,12.10
2022-09-22T08:18:57.677Z,12.10
2022-09-22T08:21:33.237Z,12.10
2022-09-22T08:24:00.826Z,12.20
2022-09-22T08:26:27.441Z,12.20
2022-09-22T08:28:55.603Z,12.20
2022-09-22T08:31:23.596Z,12.30
2022-09-22T08:33:54.210Z,12.40
2022-09-22T08:36:22.326Z,12.50
2022-09-22T08:38:49.535Z,12.50
2022-09-22T08:41:27.992Z,12.50
2022-09-22T08:44:01.511Z,12.60
2022-09-22T08:46:29.836Z,12.60
2022-09-22T08:49:20.666Z,12.70
2022-09-22T08:51:53.060Z,12.80
2022-09-22T08:54:21.601Z,12.90
2022-09-22T08:57:16.782Z,12.90
2022-09-22T08:59:45.997Z,13.00
2022-09-22T09:02:33.759Z,13.10
2022-09-22T09:05:11.044Z,13.20
2022-09-22T09:07:43.111Z,13.30
2022-09-22T09:10:29.131Z,13.40
2022-09-22T09:13:08.216Z,13.40
2022-09-22T09:15:52.546Z,13.50
2022-09-22T09:18:27.416Z,13.60
2022-09-22T09:20:56.391Z,13.70
2022-09-22T09:26:18.440Z,13.70
2022-09-22T09:28:53.318Z,13.80
2022-09-22T09:31:33.092Z,13.80
2022-09-22T09:34:06.127Z,13.80
2022-09-22T09:36:37.703Z,13.90
2022-09-22T09:39:14.589Z,13.90
2022-09-22T09:41:43.852Z,14.00
2022-09-22T09:44:20.351Z,14.00
2022-09-22T09:47:19.338Z,14.10
2022-09-22T09:49:52.564Z,14.10
2022-09-22T09:52:20.116Z,14.20
2022-09-22T09:54:47.335Z,14.20
2022-09-22T09:57:18.625Z,14.30
2022-09-22T10:00:27.537Z,14.40
2022-09-22T10:03:23.287Z,14.40
2022-09-22T10:06:04.401Z,14.40
2022-09-22T10:08:36.410Z,14.50
2022-09-22T10:11:04.333Z,14.50
2022-09-22T10:13:39.220Z,14.60
2022-09-22T10:16:22.730Z,14.80
2022-09-22T10:18:52.117Z,14.80
2022-09-22T10:21:21.434Z,14.80
2022-09-22T10:23:59.432Z,14.80
2022-09-22T10:26:28.546Z,14.90
2022-09-22T10:29:13.179Z,14.90
2022-09-22T10:31:41.614Z,15.00
2022-09-22T10:34:35.729Z,15.00
2022-09-22T10:37:07.125Z,15.10
2022-09-22T10:39:50.731Z,15.10
2022-09-22T10:42:33.252Z,15.10
2022-09-22T10:45:05.682Z,15.10
2022-09-22T10:47:57.586Z,15.30
2022-09-22T10:50:37.872Z,13.80
2022-09-22T10:53:18.363Z,15.40
2022-09-22T10:56:17.784Z,15.50
2022-09-22T10:59:15.630Z,15.50
2022-09-22T11:02:02.465Z,15.50
2022-09-22T11:05:11.523Z,15.60
2022-09-22T11:07:59.945Z,15.60
2022-09-22T11:11:11.228Z,15.70
2022-09-22T11:14:04.246Z,15.80
2022-09-22T11:17:01.824Z,15.80
2022-09-22T11:19:44.791Z,15.80
2022-09-22T11:22:36.501Z,15.80
2022-09-22T11:25:28.808Z,15.80
2022-09-22T11:28:04.664Z,15.90
2022-09-22T11:30:40.533Z,16.00
2022-09-22T11:33:09.938Z,16.00
2022-09-22T11:35:42.362Z,16.00
2022-09-22T11:38:27.452Z,16.00
2022-09-22T11:41:25.872Z,16.10
2022-09-22T11:44:25.585Z,16.10
2022-09-22T11:47:22.108Z,16.20
2022-09-22T11:50:04.864Z,16.20
2022-09-22T11:52:59.884Z,16.20
2022-09-22T11:55:48.734Z,16.30
2022-09-22T11:58:19.529Z,16.40
2022-09-22T12:00:59.158Z,16.30
2022-09-22T12:03:32.539Z,16.30
2022-09-22T12:06:03.806Z,16.30
2022-09-22T12:08:35.600Z,16.30
2022-09-22T12:11:03.164Z,16.40
2022-09-22T12:13:31.421Z,16.30
2022-09-22T12:16:25.539Z,16.30
2022-09-22T12:19:14.277Z,16.40
2022-09-22T12:21:56.710Z,16.40
2022-09-22T12:24:24.646Z,16.40
2022-09-22T12:26:51.540Z,16.40
2022-09-22T12:29:25.256Z,16.40
2022-09-22T12:31:55.522Z,16.40
2022-09-22T12:34:29.288Z,16.30
2022-09-22T12:37:25.052Z,16.40
2022-09-22T12:39:51.677Z,16.40
2022-09-22T12:42:24.044Z,16.50
2022-09-22T12:45:01.046Z,16.60
2022-09-22T12:47:41.835Z,16.70
2022-09-22T12:50:23.907Z,16.60
2022-09-22T12:52:50.640Z,16.70
2022-09-22T12:55:30.348Z,16.70
2022-09-22T12:57:59.074Z,16.70
2022-09-22T13:00:43.167Z,17.00
2022-09-22T13:03:30.529Z,16.80
2022-09-22T13:06:02.255Z,16.80
2022-09-22T13:08:31.565Z,16.80
2022-09-22T13:11:06.504Z,16.90
2022-09-22T13:13:47.397Z,16.90
2022-09-22T13:16:14.025Z,17.00
2022-09-22T13:18:58.726Z,17.00
2022-09-22T13:21:31.168Z,17.10
2022-09-22T13:24:03.712Z,17.10
2022-09-22T13:26:32.326Z,17.10
2022-09-22T13:29:13.145Z,17.10
2022-09-22T13:31:41.089Z,17.10
2022-09-22T13:34:40.028Z,17.10
2022-09-22T13:37:12.158Z,17.10
2022-09-22T13:39:46.877Z,17.20
2022-09-22T13:42:22.241Z,17.10
2022-09-22T13:45:01.647Z,17.10
2022-09-22T13:47:28.447Z,17.00
2022-09-22T13:50:01.502Z,17.00
2022-09-22T13:52:31.206Z,17.10
2022-09-22T13:55:04.475Z,17.00
2022-09-22T13:57:34.594Z,17.10
2022-09-22T14:00:01.847Z,17.10
2022-09-22T14:02:31.918Z,17.00
2022-09-22T14:05:02.692Z,17.10
2022-09-22T14:07:32.227Z,17.20
2022-09-22T14:10:01.239Z,17.00
2022-09-22T14:12:31.850Z,17.10
2022-09-22T14:15:36.727Z,17.10
2022-09-22T14:18:19.227Z,17.20
2022-09-22T14:20:46.569Z,17.20
2022-09-22T14:23:23.863Z,17.30
2022-09-22T14:25:50.497Z,17.40
2022-09-22T14:28:24.055Z,17.30
2022-09-22T14:30:51.033Z,17.30
2022-09-22T14:33:22.405Z,17.30
2022-09-22T14:35:51.015Z,17.30
2022-09-22T14:38:23.809Z,17.40
2022-09-22T14:40:55.824Z,17.40
2022-09-22T14:43:25.809Z,17.40
2022-09-22T14:46:09.202Z,17.40
2022-09-22T14:48:36.425Z,17.50
2022-09-22T14:53:34.502Z,17.40
2022-09-22T14:56:07.526Z,17.50
2022-09-22T14:58:40.909Z,17.50
2022-09-22T15:01:44.942Z,17.60
2022-09-22T15:04:22.235Z,17.50
2022-09-22T15:06:56.364Z,19.30
2022-09-22T15:09:38.825Z,17.40
2022-09-22T15:12:05.994Z,17.40
2022-09-22T15:14:41.403Z,17.40
2022-09-22T15:18:01.702Z,17.50
2022-09-22T15:20:52.850Z,17.40
2022-09-22T15:23:32.015Z,17.50
2022-09-22T15:26:03.579Z,17.40
2022-09-22T15:28:31.991Z,17.50
2022-09-22T15:30:59.015Z,17.40
2022-09-22T15:33:26.905Z,17.30
2022-09-22T15:35:58.007Z,17.30
2022-09-22T15:38:27.380Z,17.30
2022-09-22T15:40:54.526Z,17.20
2022-09-22T15:43:23.332Z,17.10
2022-09-22T15:45:53.781Z,17.10
2022-09-22T15:48:27.581Z,17.10
2022-09-22T15:50:55.907Z,17.00
2022-09-22T15:53:23.991Z,17.00
2022-09-22T15:55:52.349Z,17.00
2022-09-22T15:58:22.766Z,17.00
2022-09-22T16:00:56.553Z,16.90
2022-09-22T16:03:24.145Z,16.20
2022-09-22T16:05:56.577Z,16.90
2022-09-22T16:08:31.219Z,16.90
2022-09-22T16:10:59.232Z,16.90
2022-09-22T16:13:27.831Z,16.90
2022-09-22T16:15:54.771Z,16.80
2022-09-22T16:18:21.629Z,16.80
2022-09-22T16:20:51.610Z,16.80
2022-09-22T16:23:19.416Z,16.70
2022-09-22T16:25:51.597Z,16.80
2022-09-22T16:28:18.085Z,16.80
2022-09-22T16:30:44.584Z,16.70
2022-09-22T16:33:11.102Z,16.70
2022-09-22T16:35:38.084Z,16.70
2022-09-22T16:38:04.852Z,16.70
2022-09-22T16:40:31.570Z,16.70
2022-09-22T16:42:58.085Z,16.90
2022-09-22T16:45:43.272Z,17.10
2022-09-22T16:48:09.837Z,17.20
2022-09-22T16:50:36.905Z,17.10
2022-09-22T16:53:06.918Z,17.00
2022-09-22T16:55:37.186Z,16.80
2022-09-22T16:58:08.283Z,16.70
2022-09-22T17:00:35.407Z,16.60
2022-09-22T17:03:01.914Z,16.50
2022-09-22T17:05:28.417Z,16.40
2022-09-22T17:07:55.026Z,16.40
2022-09-22T17:10:21.912Z,16.20
2022-09-22T17:12:48.820Z,16.20
2022-09-22T17:15:16.314Z,16.20
2022-09-22T17:17:43.503Z,16.10
2022-09-22T17:20:10.248Z,16.10
2022-09-22T17:22:37.080Z,15.90
2022-09-22T17:25:03.764Z,15.90
2022-09-22T17:27:30.301Z,15.80
2022-09-22T17:29:56.863Z,15.70
2022-09-22T17:32:23.403Z,15.80
2022-09-22T17:34:49.922Z,15.60
2022-09-22T17:37:16.426Z,15.50
2022-09-22T17:39:43.500Z,15.40
2022-09-22T17:42:10.926Z,15.50
2022-09-22T17:44:37.454Z,15.30
2022-09-22T17:47:22.826Z,15.20
2022-09-22T17:50:08.177Z,15.10
2022-09-22T17:52:53.551Z,15.00
2022-09-22T17:55:22.363Z,15.00
2022-09-22T17:57:50.320Z,14.80
2022-09-22T18:00:20.953Z,14.80
2022-09-22T18:02:49.381Z,14.70
2022-09-22T18:05:18.772Z,14.60
2022-09-22T18:07:45.691Z,14.60
2022-09-22T18:10:15.368Z,14.80
2022-09-22T18:12:42.325Z,14.40
2022-09-22T18:15:12.711Z,14.30
2022-09-22T18:17:43.859Z,14.30
2022-09-22T18:20:18.429Z,14.20
2022-09-22T18:22:49.077Z,14.10
2022-09-22T18:25:19.113Z,14.00
2022-09-22T18:27:48.190Z,13.90
2022-09-22T18:30:16.154Z,13.80
2022-09-22T18:32:42.796Z,13.70
2022-09-22T18:35:09.771Z,13.70
2022-09-22T18:37:36.328Z,13.60
2022-09-22T18:40:03.436Z,13.50
2022-09-22T18:42:32.651Z,13.40
2022-09-22T18:44:59.216Z,13.40
2022-09-22T18:47:26.117Z,13.30
2022-09-22T18:49:52.746Z,13.20
2022-09-22T18:52:23.674Z,13.20
2022-09-22T18:54:53.650Z,13.10
2022-09-22T18:57:22.249Z,13.10
2022-09-22T18:59:50.739Z,13.00
2022-09-22T19:02:21.229Z,12.90
2022-09-22T19:04:48.770Z,12.90
2022-09-22T19:07:37.654Z,12.80
2022-09-22T19:10:07.822Z,12.80
2022-09-22T19:12:39.323Z,12.70
2022-09-22T19:15:09.048Z,12.70
2022-09-22T19:17:38.985Z,12.60
2022-09-22T19:20:06.199Z,12.60
2022-09-22T19:22:32.832Z,12.60
2022-09-22T19:25:02.856Z,12.60
2022-09-22T19:27:29.368Z,12.60
2022-09-22T19:29:55.894Z,12.50
2022-09-22T19:32:22.685Z,12.50
2022-09-22T19:34:52.580Z,12.40
2022-09-22T19:37:19.233Z,12.30
2022-09-22T19:39:45.773Z,12.30
2022-09-22T19:42:12.594Z,12.30
2022-09-22T19:44:40.064Z,12.30
2022-09-22T19:47:06.650Z,12.30
2022-09-22T19:49:33.213Z,12.30
2022-09-22T19:51:59.721Z,12.20
2022-09-22T19:54:26.960Z,12.20
2022-09-22T19:56:53.489Z,12.10
2022-09-22T19:59:20.017Z,12.10
2022-09-22T20:01:47.889Z,12.10
2022-09-22T20:04:17.877Z,12.10
2022-09-22T20:06:45.885Z,15.10
2022-09-22T20:09:12.537Z,12.10
2022-09-22T20:11:42.177Z,12.00
2022-09-22T20:14:20.204Z,12.00
2022-09-22T20:16:55.144Z,11.90
2022-09-22T20:19:24.073Z,11.90
2022-09-22T20:21:54.921Z,11.80
2022-09-22T20:24:22.999Z,11.80
2022-09-22T20:26:49.825Z,11.80
2022-09-22T20:29:17.207Z,11.70
2022-09-22T20:31:44.832Z,11.70
2022-09-22T20:34:15.034Z,11.70
2022-09-22T20:36:43.082Z,11.60
2022-09-22T20:39:14.849Z,11.60
2022-09-22T20:41:42.060Z,11.60
2022-09-22T20:44:14.565Z,11.60
2022-09-22T20:46:46.787Z,11.60
2022-09-22T20:49:14.473Z,11.60
2022-09-22T20:51:42.060Z,11.60
2022-09-22T20:54:09.080Z,11.60
2022-09-22T20:56:39.404Z,11.60
2022-09-22T20:59:08.779Z,11.60
2022-09-22T21:01:35.357Z,11.60
2022-09-22T21:04:02.085Z,11.60
2022-09-22T21:06:30.765Z,11.60
2022-09-22T21:09:16.424Z,11.60
2022-09-22T21:11:43.941Z,11.60
2022-09-22T21:14:11.118Z,11.60
2022-09-22T21:16:39.762Z,11.60
2022-09-22T21:19:07.748Z,11.60
2022-09-22T21:21:38.306Z,11.60
2022-09-22T21:24:05.227Z,11.50
2022-09-22T21:26:32.923Z,11.50
2022-09-22T21:28:59.670Z,11.50
2022-09-22T21:31:26.725Z,11.50
2022-09-22T21:33:53.408Z,11.50
2022-09-22T21:36:25.172Z,11.50
2022-09-22T21:38:56.970Z,11.50
2022-09-22T21:41:26.116Z,11.50
2022-09-22T21:43:53.711Z,11.50
2022-09-22T21:46:22.920Z,11.40
2022-09-22T21:48:49.989Z,11.40
2022-09-22T21:51:19.898Z,11.40
2022-09-22T21:53:48.321Z,11.40
2022-09-22T21:56:16.566Z,11.30
2022-09-22T21:58:45.627Z,11.30
2022-09-22T22:01:14.833Z,11.30
2022-09-22T22:03:43.104Z,11.20
2022-09-22T22:06:20.734Z,11.20
2022-09-22T22:08:51.148Z,11.20
2022-09-22T22:11:23.698Z,11.10
2022-09-22T22:13:54.606Z,11.10
2022-09-22T22:16:24.114Z,11.00
2022-09-22T22:18:51.449Z,11.00
2022-09-22T22:21:23.411Z,10.90
2022-09-22T22:23:52.749Z,10.90
2022-09-22T22:26:22.201Z,10.80
2022-09-22T22:28:49.904Z,10.80
2022-09-22T22:31:19.231Z,10.80
2022-09-22T22:33:47.014Z,10.80
2022-09-22T22:36:15.775Z,10.70
2022-09-22T22:38:44.578Z,10.70
2022-09-22T22:41:16.150Z,10.70
2022-09-22T22:43:44.158Z,10.60
2022-09-22T22:46:16.162Z,10.60
2022-09-22T22:48:43.638Z,10.60
2022-09-22T22:51:18.442Z,10.50
2022-09-22T22:53:45.334Z,10.50
2022-09-22T22:56:21.615Z,10.50
2022-09-22T22:58:49.579Z,10.50
2022-09-22T23:01:21.864Z,10.40
2022-09-22T23:03:54.200Z,10.40
2022-09-22T23:06:29.797Z,10.40
2022-09-22T23:08:56.509Z,10.30
2022-09-22T23:11:29.846Z,10.30
2022-09-22T23:14:03.738Z,10.20
2022-09-22T23:16:36.298Z,10.00
2022-09-22T23:19:07.570Z,10.00
2022-09-22T23:21:35.387Z,10.00
2022-09-22T23:24:02.734Z,10.00
2022-09-22T23:26:29.722Z,10.00
2022-09-22T23:28:58.301Z,9.90
2022-09-22T23:31:25.920Z,9.90
2022-09-22T23:33:53.054Z,9.90
2022-09-22T23:36:22.802Z,9.90
2022-09-22T23:38:53.763Z,9.90
2022-09-22T23:41:20.707Z,9.80
2022-09-22T23:43:47.280Z,9.80
2022-09-22T23:46:13.881Z,9.80
2022-09-22T23:48:40.420Z,9.80
2022-09-22T23:51:06.975Z,9.70
2022-09-22T23:53:35.437Z,9.70
2022-09-22T23:56:02.463Z,9.70
2022-09-22T23:58:30.355Z,9.70
